sensor_id;sensor_type;location;lat;lon;timestamp;P1;durP1;ratioP1;P2;durP2;ratioP2
64667;SDS011;51077;42.716;23.344;2023-07-31T00:00:00;2.80;;;1.90;;
64667;SDS011;51077;42.716;23.344;2023-07-31T00:02:25;2.60;;;2.00;;
64667;SDS011;51077;42.716;23.344;2023-07-31T00:04:51;3.90;;;2.23;;
64667;SDS011;51077;42.716;23.344;2023-07-31T00:07:16;2.70;;;1.80;;
64667;SDS011;51077;42.716;23.344;2023-07-31T00:09:41;2.80;;;1.97;;
64667;SDS011;51077;42.716;23.344;2023-07-31T00:12:07;3.57;;;2.13;;
64667;SDS011;51077;42.716;23.344;2023-07-31T00:14:33;3.73;;;1.90;;
64667;SDS011;51077;42.716;23.344;2023-07-31T00:16:58;3.20;;;1.80;;
64667;SDS011;51077;42.716;23.344;2023-07-31T00:19:24;3.40;;;1.90;;
64667;SDS011;51077;42.716;23.344;2023-07-31T00:21:49;3.17;;;2.17;;
64667;SDS011;51077;42.716;23.344;2023-07-31T00:24:14;2.70;;;1.90;;
64667;SDS011;51077;42.716;23.344;2023-07-31T00:26:40;3.77;;;1.80;;
64667;SDS011;51077;42.716;23.344;2023-07-31T00:29:05;3.10;;;1.87;;
64667;SDS011;51077;42.716;23.344;2023-07-31T00:31:31;3.37;;;2.37;;
64667;SDS011;51077;42.716;23.344;2023-07-31T00:33:56;3.10;;;2.13;;
64667;SDS011;51077;42.716;23.344;2023-07-31T00:36:21;2.93;;;2.00;;
64667;SDS011;51077;42.716;23.344;2023-07-31T00:38:47;3.53;;;2.20;;
64667;SDS011;51077;42.716;23.344;2023-07-31T00:41:12;3.20;;;1.97;;
64667;SDS011;51077;42.716;23.344;2023-07-31T00:43:38;3.60;;;2.13;;
64667;SDS011;51077;42.716;23.344;2023-07-31T00:46:03;4.07;;;2.00;;
64667;SDS011;51077;42.716;23.344;2023-07-31T00:48:28;2.80;;;2.10;;
64667;SDS011;51077;42.716;23.344;2023-07-31T00:50:56;4.22;;;2.30;;
64667;SDS011;51077;42.716;23.344;2023-07-31T00:53:22;3.43;;;2.10;;
64667;SDS011;51077;42.716;23.344;2023-07-31T00:55:49;3.15;;;2.00;;
64667;SDS011;51077;42.716;23.344;2023-07-31T00:58:15;3.43;;;2.33;;
64667;SDS011;51077;42.716;23.344;2023-07-31T01:00:40;3.83;;;2.20;;
64667;SDS011;51077;42.716;23.344;2023-07-31T01:03:06;4.50;;;2.63;;
64667;SDS011;51077;42.716;23.344;2023-07-31T01:05:56;3.30;;;2.17;;
64667;SDS011;51077;42.716;23.344;2023-07-31T01:10:56;3.47;;;2.72;;
64667;SDS011;51077;42.716;23.344;2023-07-31T01:13:27;4.35;;;2.83;;
64667;SDS011;51077;42.716;23.344;2023-07-31T01:15:53;3.92;;;3.00;;
64667;SDS011;51077;42.716;23.344;2023-07-31T01:18:19;3.40;;;2.70;;
64667;SDS011;51077;42.716;23.344;2023-07-31T01:20:44;4.53;;;3.23;;
64667;SDS011;51077;42.716;23.344;2023-07-31T01:26:03;6.43;;;3.60;;
64667;SDS011;51077;42.716;23.344;2023-07-31T01:31:12;5.82;;;3.75;;
64667;SDS011;51077;42.716;23.344;2023-07-31T01:33:41;6.05;;;4.30;;
64667;SDS011;51077;42.716;23.344;2023-07-31T01:36:07;4.68;;;4.10;;
64667;SDS011;51077;42.716;23.344;2023-07-31T01:38:33;5.37;;;4.60;;
64667;SDS011;51077;42.716;23.344;2023-07-31T01:40:58;5.13;;;4.63;;
64667;SDS011;51077;42.716;23.344;2023-07-31T01:43:24;5.27;;;4.70;;
64667;SDS011;51077;42.716;23.344;2023-07-31T01:45:49;5.30;;;4.60;;
64667;SDS011;51077;42.716;23.344;2023-07-31T01:48:15;5.77;;;5.10;;
64667;SDS011;51077;42.716;23.344;2023-07-31T01:50:40;8.37;;;5.20;;
64667;SDS011;51077;42.716;23.344;2023-07-31T01:53:05;7.07;;;5.37;;
64667;SDS011;51077;42.716;23.344;2023-07-31T01:55:31;6.27;;;5.63;;
64667;SDS011;51077;42.716;23.344;2023-07-31T01:57:56;7.03;;;5.90;;
64667;SDS011;51077;42.716;23.344;2023-07-31T02:00:22;7.77;;;5.90;;
64667;SDS011;51077;42.716;23.344;2023-07-31T02:02:47;6.93;;;6.23;;
64667;SDS011;51077;42.716;23.344;2023-07-31T02:05:12;7.33;;;6.53;;
64667;SDS011;51077;42.716;23.344;2023-07-31T02:07:38;7.13;;;6.40;;
64667;SDS011;51077;42.716;23.344;2023-07-31T02:10:03;7.23;;;6.27;;
64667;SDS011;51077;42.716;23.344;2023-07-31T02:12:29;8.10;;;6.73;;
64667;SDS011;51077;42.716;23.344;2023-07-31T02:14:58;7.85;;;6.80;;
64667;SDS011;51077;42.716;23.344;2023-07-31T02:17:24;8.93;;;7.73;;
64667;SDS011;51077;42.716;23.344;2023-07-31T02:19:49;7.93;;;7.13;;
64667;SDS011;51077;42.716;23.344;2023-07-31T02:22:15;8.97;;;7.10;;
64667;SDS011;51077;42.716;23.344;2023-07-31T02:24:40;8.93;;;7.93;;
64667;SDS011;51077;42.716;23.344;2023-07-31T02:27:05;8.97;;;7.80;;
64667;SDS011;51077;42.716;23.344;2023-07-31T02:29:31;8.33;;;7.53;;
64667;SDS011;51077;42.716;23.344;2023-07-31T02:31:56;9.00;;;8.10;;
64667;SDS011;51077;42.716;23.344;2023-07-31T02:34:22;8.57;;;7.73;;
64667;SDS011;51077;42.716;23.344;2023-07-31T02:36:47;7.70;;;6.97;;
64667;SDS011;51077;42.716;23.344;2023-07-31T02:39:12;10.00;;;7.90;;
64667;SDS011;51077;42.716;23.344;2023-07-31T02:41:38;8.80;;;7.90;;
64667;SDS011;51077;42.716;23.344;2023-07-31T02:44:03;9.37;;;8.17;;
64667;SDS011;51077;42.716;23.344;2023-07-31T02:46:29;9.40;;;8.43;;
64667;SDS011;51077;42.716;23.344;2023-07-31T02:48:54;11.03;;;9.60;;
64667;SDS011;51077;42.716;23.344;2023-07-31T02:51:20;10.00;;;9.00;;
64667;SDS011;51077;42.716;23.344;2023-07-31T02:53:46;10.10;;;9.07;;
64667;SDS011;51077;42.716;23.344;2023-07-31T02:56:12;9.80;;;8.88;;
64667;SDS011;51077;42.716;23.344;2023-07-31T02:58:38;10.23;;;9.23;;
64667;SDS011;51077;42.716;23.344;2023-07-31T03:01:03;10.03;;;9.03;;
64667;SDS011;51077;42.716;23.344;2023-07-31T03:03:29;10.63;;;9.63;;
64667;SDS011;51077;42.716;23.344;2023-07-31T03:05:54;10.73;;;9.23;;
64667;SDS011;51077;42.716;23.344;2023-07-31T03:08:20;10.40;;;9.40;;
64667;SDS011;51077;42.716;23.344;2023-07-31T03:10:46;10.55;;;9.48;;
64667;SDS011;51077;42.716;23.344;2023-07-31T03:13:11;11.60;;;10.33;;
64667;SDS011;51077;42.716;23.344;2023-07-31T03:15:36;11.47;;;10.37;;
64667;SDS011;51077;42.716;23.344;2023-07-31T03:18:02;11.23;;;10.13;;
64667;SDS011;51077;42.716;23.344;2023-07-31T03:20:27;11.23;;;10.13;;
64667;SDS011;51077;42.716;23.344;2023-07-31T03:22:53;11.97;;;10.77;;
64667;SDS011;51077;42.716;23.344;2023-07-31T03:25:18;11.77;;;10.63;;
64667;SDS011;51077;42.716;23.344;2023-07-31T03:27:43;11.50;;;10.40;;
64667;SDS011;51077;42.716;23.344;2023-07-31T03:30:09;11.93;;;10.83;;
64667;SDS011;51077;42.716;23.344;2023-07-31T03:32:34;12.40;;;11.20;;
64667;SDS011;51077;42.716;23.344;2023-07-31T03:35:00;10.60;;;9.60;;
64667;SDS011;51077;42.716;23.344;2023-07-31T03:37:25;11.27;;;9.90;;
64667;SDS011;51077;42.716;23.344;2023-07-31T03:39:51;22.83;;;8.20;;
64667;SDS011;51077;42.716;23.344;2023-07-31T03:42:16;12.07;;;10.87;;
64667;SDS011;51077;42.716;23.344;2023-07-31T03:44:42;12.33;;;10.87;;
64667;SDS011;51077;42.716;23.344;2023-07-31T03:47:07;11.90;;;10.80;;
64667;SDS011;51077;42.716;23.344;2023-07-31T03:49:32;12.00;;;10.63;;
64667;SDS011;51077;42.716;23.344;2023-07-31T03:51:58;12.73;;;10.70;;
64667;SDS011;51077;42.716;23.344;2023-07-31T03:54:23;12.83;;;11.57;;
64667;SDS011;51077;42.716;23.344;2023-07-31T03:56:49;12.43;;;11.13;;
64667;SDS011;51077;42.716;23.344;2023-07-31T03:59:14;14.07;;;11.53;;
64667;SDS011;51077;42.716;23.344;2023-07-31T04:01:40;13.00;;;11.70;;
64667;SDS011;51077;42.716;23.344;2023-07-31T04:04:05;13.73;;;12.30;;
64667;SDS011;51077;42.716;23.344;2023-07-31T04:06:31;13.87;;;12.40;;
64667;SDS011;51077;42.716;23.344;2023-07-31T04:08:56;14.00;;;12.50;;
64667;SDS011;51077;42.716;23.344;2023-07-31T04:11:22;13.60;;;12.20;;
64667;SDS011;51077;42.716;23.344;2023-07-31T04:13:47;13.83;;;12.43;;
64667;SDS011;51077;42.716;23.344;2023-07-31T04:16:12;15.10;;;11.87;;
64667;SDS011;51077;42.716;23.344;2023-07-31T04:18:38;14.77;;;12.93;;
64667;SDS011;51077;42.716;23.344;2023-07-31T04:21:03;14.63;;;13.10;;
64667;SDS011;51077;42.716;23.344;2023-07-31T04:23:29;13.77;;;12.37;;
64667;SDS011;51077;42.716;23.344;2023-07-31T04:25:55;14.30;;;12.80;;
64667;SDS011;51077;42.716;23.344;2023-07-31T04:28:20;15.13;;;13.63;;
64667;SDS011;51077;42.716;23.344;2023-07-31T04:30:45;14.33;;;12.93;;
64667;SDS011;51077;42.716;23.344;2023-07-31T04:33:11;15.40;;;13.80;;
64667;SDS011;51077;42.716;23.344;2023-07-31T04:35:36;14.87;;;13.33;;
64667;SDS011;51077;42.716;23.344;2023-07-31T04:38:02;15.03;;;13.43;;
64667;SDS011;51077;42.716;23.344;2023-07-31T04:40:27;16.80;;;12.97;;
64667;SDS011;51077;42.716;23.344;2023-07-31T04:42:53;14.83;;;13.33;;
64667;SDS011;51077;42.716;23.344;2023-07-31T04:45:18;15.53;;;13.87;;
64667;SDS011;51077;42.716;23.344;2023-07-31T04:47:43;14.60;;;13.10;;
64667;SDS011;51077;42.716;23.344;2023-07-31T04:50:09;14.67;;;13.17;;
64667;SDS011;51077;42.716;23.344;2023-07-31T04:52:34;17.43;;;13.47;;
64667;SDS011;51077;42.716;23.344;2023-07-31T04:55:00;15.47;;;13.97;;
64667;SDS011;51077;42.716;23.344;2023-07-31T04:57:25;15.87;;;14.17;;
64667;SDS011;51077;42.716;23.344;2023-07-31T04:59:51;17.13;;;14.17;;
64667;SDS011;51077;42.716;23.344;2023-07-31T05:02:16;16.33;;;14.27;;
64667;SDS011;51077;42.716;23.344;2023-07-31T05:04:42;14.93;;;13.33;;
64667;SDS011;51077;42.716;23.344;2023-07-31T05:07:07;14.47;;;13.03;;
64667;SDS011;51077;42.716;23.344;2023-07-31T05:09:32;15.37;;;13.77;;
64667;SDS011;51077;42.716;23.344;2023-07-31T05:11:58;14.63;;;13.17;;
64667;SDS011;51077;42.716;23.344;2023-07-31T05:14:23;14.47;;;12.97;;
64667;SDS011;51077;42.716;23.344;2023-07-31T05:16:50;14.70;;;13.20;;
64667;SDS011;51077;42.716;23.344;2023-07-31T05:19:16;14.70;;;13.13;;
64667;SDS011;51077;42.716;23.344;2023-07-31T05:21:41;13.93;;;12.33;;
64667;SDS011;51077;42.716;23.344;2023-07-31T05:24:07;14.37;;;12.97;;
64667;SDS011;51077;42.716;23.344;2023-07-31T05:26:32;13.90;;;12.47;;
64667;SDS011;51077;42.716;23.344;2023-07-31T05:28:57;14.07;;;12.67;;
64667;SDS011;51077;42.716;23.344;2023-07-31T05:31:23;12.77;;;11.20;;
64667;SDS011;51077;42.716;23.344;2023-07-31T05:33:49;12.60;;;11.30;;
64667;SDS011;51077;42.716;23.344;2023-07-31T05:36:15;12.73;;;11.53;;
64667;SDS011;51077;42.716;23.344;2023-07-31T05:38:41;12.65;;;11.35;;
64667;SDS011;51077;42.716;23.344;2023-07-31T05:41:09;11.63;;;10.52;;
64667;SDS011;51077;42.716;23.344;2023-07-31T05:43:35;13.27;;;10.83;;
64667;SDS011;51077;42.716;23.344;2023-07-31T05:46:00;11.97;;;10.77;;
64667;SDS011;51077;42.716;23.344;2023-07-31T05:48:26;11.93;;;10.13;;
64667;SDS011;51077;42.716;23.344;2023-07-31T05:50:52;13.27;;;10.87;;
64667;SDS011;51077;42.716;23.344;2023-07-31T05:53:17;10.23;;;9.23;;
64667;SDS011;51077;42.716;23.344;2023-07-31T05:55:42;10.03;;;9.03;;
64667;SDS011;51077;42.716;23.344;2023-07-31T05:58:08;11.00;;;9.90;;
64667;SDS011;51077;42.716;23.344;2023-07-31T06:00:33;10.93;;;9.90;;
64667;SDS011;51077;42.716;23.344;2023-07-31T06:02:59;9.23;;;8.37;;
64667;SDS011;51077;42.716;23.344;2023-07-31T06:05:24;9.00;;;8.10;;
64667;SDS011;51077;42.716;23.344;2023-07-31T06:07:51;9.07;;;8.18;;
64667;SDS011;51077;42.716;23.344;2023-07-31T06:10:16;8.60;;;7.83;;
64667;SDS011;51077;42.716;23.344;2023-07-31T06:12:41;8.43;;;7.17;;
64667;SDS011;51077;42.716;23.344;2023-07-31T06:15:07;8.70;;;6.73;;
64667;SDS011;51077;42.716;23.344;2023-07-31T06:17:32;7.07;;;6.40;;
64667;SDS011;51077;42.716;23.344;2023-07-31T06:19:58;8.27;;;7.23;;
64667;SDS011;51077;42.716;23.344;2023-07-31T06:22:23;9.13;;;6.47;;
64667;SDS011;51077;42.716;23.344;2023-07-31T06:24:49;7.30;;;6.43;;
64667;SDS011;51077;42.716;23.344;2023-07-31T06:27:14;6.30;;;5.70;;
64667;SDS011;51077;42.716;23.344;2023-07-31T06:29:39;8.30;;;5.60;;
64667;SDS011;51077;42.716;23.344;2023-07-31T06:32:06;6.47;;;5.53;;
64667;SDS011;51077;42.716;23.344;2023-07-31T06:34:31;5.70;;;5.07;;
64667;SDS011;51077;42.716;23.344;2023-07-31T06:36:57;7.30;;;5.10;;
64667;SDS011;51077;42.716;23.344;2023-07-31T06:39:22;7.03;;;4.57;;
64667;SDS011;51077;42.716;23.344;2023-07-31T06:41:48;6.10;;;4.53;;
64667;SDS011;51077;42.716;23.344;2023-07-31T06:44:13;5.67;;;4.70;;
64667;SDS011;51077;42.716;23.344;2023-07-31T06:46:39;5.53;;;4.33;;
64667;SDS011;51077;42.716;23.344;2023-07-31T06:49:04;4.87;;;3.97;;
64667;SDS011;51077;42.716;23.344;2023-07-31T06:51:29;5.20;;;3.83;;
64667;SDS011;51077;42.716;23.344;2023-07-31T06:53:56;5.25;;;4.03;;
64667;SDS011;51077;42.716;23.344;2023-07-31T06:56:22;5.28;;;3.30;;
64667;SDS011;51077;42.716;23.344;2023-07-31T06:58:48;4.37;;;3.73;;
64667;SDS011;51077;42.716;23.344;2023-07-31T07:01:13;5.63;;;3.70;;
64667;SDS011;51077;42.716;23.344;2023-07-31T07:03:39;4.90;;;3.47;;
64667;SDS011;51077;42.716;23.344;2023-07-31T07:06:04;7.67;;;3.17;;
64667;SDS011;51077;42.716;23.344;2023-07-31T07:08:30;5.63;;;3.17;;
64667;SDS011;51077;42.716;23.344;2023-07-31T07:10:55;5.50;;;3.40;;
64667;SDS011;51077;42.716;23.344;2023-07-31T07:13:21;5.13;;;3.00;;
64667;SDS011;51077;42.716;23.344;2023-07-31T07:15:50;4.27;;;3.50;;
64667;SDS011;51077;42.716;23.344;2023-07-31T07:18:16;4.05;;;3.28;;
64667;SDS011;51077;42.716;23.344;2023-07-31T07:20:52;4.55;;;2.88;;
64667;SDS011;51077;42.716;23.344;2023-07-31T07:23:18;3.67;;;3.10;;
64667;SDS011;51077;42.716;23.344;2023-07-31T07:25:44;5.97;;;3.33;;
64667;SDS011;51077;42.716;23.344;2023-07-31T07:28:10;4.72;;;2.85;;
64667;SDS011;51077;42.716;23.344;2023-07-31T07:30:36;6.20;;;2.67;;
64667;SDS011;51077;42.716;23.344;2023-07-31T07:33:01;3.77;;;2.63;;
64667;SDS011;51077;42.716;23.344;2023-07-31T07:35:27;3.47;;;2.50;;
64667;SDS011;51077;42.716;23.344;2023-07-31T07:37:52;4.00;;;3.00;;
64667;SDS011;51077;42.716;23.344;2023-07-31T07:40:18;5.65;;;3.05;;
64667;SDS011;51077;42.716;23.344;2023-07-31T07:42:44;4.38;;;3.00;;
64667;SDS011;51077;42.716;23.344;2023-07-31T07:45:10;4.13;;;2.87;;
64667;SDS011;51077;42.716;23.344;2023-07-31T07:47:35;4.83;;;2.73;;
64667;SDS011;51077;42.716;23.344;2023-07-31T07:50:00;4.53;;;2.57;;
64667;SDS011;51077;42.716;23.344;2023-07-31T07:52:26;4.27;;;2.77;;
64667;SDS011;51077;42.716;23.344;2023-07-31T07:54:51;4.77;;;2.50;;
64667;SDS011;51077;42.716;23.344;2023-07-31T07:57:17;4.23;;;2.97;;
64667;SDS011;51077;42.716;23.344;2023-07-31T07:59:42;3.63;;;2.57;;
64667;SDS011;51077;42.716;23.344;2023-07-31T08:02:08;4.23;;;2.50;;
64667;SDS011;51077;42.716;23.344;2023-07-31T08:04:33;4.23;;;2.47;;
64667;SDS011;51077;42.716;23.344;2023-07-31T08:06:58;5.93;;;2.53;;
64667;SDS011;51077;42.716;23.344;2023-07-31T08:09:24;6.73;;;3.00;;
64667;SDS011;51077;42.716;23.344;2023-07-31T08:11:49;4.03;;;2.23;;
64667;SDS011;51077;42.716;23.344;2023-07-31T08:14:14;3.60;;;2.13;;
64667;SDS011;51077;42.716;23.344;2023-07-31T08:16:40;3.40;;;2.30;;
64667;SDS011;51077;42.716;23.344;2023-07-31T08:19:05;4.13;;;2.67;;
64667;SDS011;51077;42.716;23.344;2023-07-31T08:21:31;3.73;;;2.43;;
64667;SDS011;51077;42.716;23.344;2023-07-31T08:23:57;3.33;;;2.20;;
64667;SDS011;51077;42.716;23.344;2023-07-31T08:26:22;6.10;;;2.07;;
64667;SDS011;51077;42.716;23.344;2023-07-31T08:28:48;3.47;;;2.50;;
64667;SDS011;51077;42.716;23.344;2023-07-31T08:31:13;5.00;;;2.10;;
64667;SDS011;51077;42.716;23.344;2023-07-31T08:33:39;3.90;;;2.20;;
64667;SDS011;51077;42.716;23.344;2023-07-31T08:36:05;7.07;;;2.80;;
64667;SDS011;51077;42.716;23.344;2023-07-31T08:38:31;4.30;;;2.43;;
64667;SDS011;51077;42.716;23.344;2023-07-31T08:40:57;4.83;;;2.40;;
64667;SDS011;51077;42.716;23.344;2023-07-31T08:43:24;4.10;;;2.20;;
64667;SDS011;51077;42.716;23.344;2023-07-31T08:45:51;3.20;;;2.10;;
64667;SDS011;51077;42.716;23.344;2023-07-31T08:48:17;3.70;;;2.27;;
64667;SDS011;51077;42.716;23.344;2023-07-31T08:50:44;2.53;;;1.87;;
64667;SDS011;51077;42.716;23.344;2023-07-31T08:53:10;3.87;;;2.23;;
64667;SDS011;51077;42.716;23.344;2023-07-31T08:55:37;3.20;;;2.13;;
64667;SDS011;51077;42.716;23.344;2023-07-31T08:58:04;3.40;;;1.70;;
64667;SDS011;51077;42.716;23.344;2023-07-31T09:00:31;4.63;;;2.30;;
64667;SDS011;51077;42.716;23.344;2023-07-31T09:03:07;3.17;;;2.30;;
64667;SDS011;51077;42.716;23.344;2023-07-31T09:05:35;3.30;;;2.10;;
64667;SDS011;51077;42.716;23.344;2023-07-31T09:08:02;3.83;;;2.03;;
64667;SDS011;51077;42.716;23.344;2023-07-31T09:10:30;3.37;;;2.10;;
64667;SDS011;51077;42.716;23.344;2023-07-31T09:12:55;4.13;;;1.97;;
64667;SDS011;51077;42.716;23.344;2023-07-31T09:15:23;2.90;;;1.80;;
64667;SDS011;51077;42.716;23.344;2023-07-31T09:17:52;3.53;;;2.17;;
64667;SDS011;51077;42.716;23.344;2023-07-31T09:20:28;4.67;;;2.23;;
64667;SDS011;51077;42.716;23.344;2023-07-31T09:22:53;3.57;;;1.83;;
64667;SDS011;51077;42.716;23.344;2023-07-31T09:25:24;3.17;;;1.83;;
64667;SDS011;51077;42.716;23.344;2023-07-31T09:27:51;3.47;;;2.10;;
64667;SDS011;51077;42.716;23.344;2023-07-31T09:30:18;4.10;;;2.17;;
64667;SDS011;51077;42.716;23.344;2023-07-31T09:32:44;3.70;;;2.43;;
64667;SDS011;51077;42.716;23.344;2023-07-31T09:35:30;3.10;;;2.17;;
64667;SDS011;51077;42.716;23.344;2023-07-31T09:37:58;3.37;;;2.07;;
64667;SDS011;51077;42.716;23.344;2023-07-31T09:40:35;3.90;;;1.97;;
64667;SDS011;51077;42.716;23.344;2023-07-31T09:43:03;3.03;;;2.00;;
64667;SDS011;51077;42.716;23.344;2023-07-31T09:45:30;3.10;;;2.10;;
64667;SDS011;51077;42.716;23.344;2023-07-31T09:47:59;2.87;;;1.57;;
64667;SDS011;51077;42.716;23.344;2023-07-31T09:50:24;3.13;;;1.90;;
64667;SDS011;51077;42.716;23.344;2023-07-31T09:52:50;5.23;;;1.77;;
64667;SDS011;51077;42.716;23.344;2023-07-31T09:55:17;2.37;;;1.60;;
64667;SDS011;51077;42.716;23.344;2023-07-31T09:57:45;3.07;;;1.80;;
64667;SDS011;51077;42.716;23.344;2023-07-31T10:00:12;3.97;;;2.00;;
64667;SDS011;51077;42.716;23.344;2023-07-31T10:02:39;3.37;;;1.57;;
64667;SDS011;51077;42.716;23.344;2023-07-31T10:05:05;2.93;;;1.47;;
64667;SDS011;51077;42.716;23.344;2023-07-31T10:07:33;2.93;;;1.60;;
64667;SDS011;51077;42.716;23.344;2023-07-31T10:10:02;5.40;;;1.73;;
64667;SDS011;51077;42.716;23.344;2023-07-31T10:12:29;2.60;;;1.80;;
64667;SDS011;51077;42.716;23.344;2023-07-31T10:14:56;2.50;;;1.87;;
64667;SDS011;51077;42.716;23.344;2023-07-31T10:17:24;4.27;;;1.40;;
64667;SDS011;51077;42.716;23.344;2023-07-31T10:19:50;2.60;;;1.57;;
64667;SDS011;51077;42.716;23.344;2023-07-31T10:22:16;4.03;;;1.70;;
64667;SDS011;51077;42.716;23.344;2023-07-31T10:24:43;2.97;;;1.50;;
64667;SDS011;51077;42.716;23.344;2023-07-31T10:27:10;3.70;;;1.53;;
64667;SDS011;51077;42.716;23.344;2023-07-31T10:29:36;3.80;;;1.20;;
64667;SDS011;51077;42.716;23.344;2023-07-31T10:32:03;3.37;;;1.40;;
64667;SDS011;51077;42.716;23.344;2023-07-31T10:34:33;2.67;;;1.70;;
64667;SDS011;51077;42.716;23.344;2023-07-31T10:40:33;2.43;;;1.40;;
64667;SDS011;51077;42.716;23.344;2023-07-31T10:42:56;3.73;;;1.60;;
64667;SDS011;51077;42.716;23.344;2023-07-31T10:48:02;2.30;;;1.30;;
64667;SDS011;51077;42.716;23.344;2023-07-31T10:50:29;2.07;;;1.30;;
64667;SDS011;51077;42.716;23.344;2023-07-31T10:52:59;3.33;;;1.30;;
64667;SDS011;51077;42.716;23.344;2023-07-31T10:57:58;2.40;;;1.20;;
64667;SDS011;51077;42.716;23.344;2023-07-31T11:00:37;3.60;;;1.30;;
64667;SDS011;51077;42.716;23.344;2023-07-31T11:08:23;2.47;;;1.50;;
64667;SDS011;51077;42.716;23.344;2023-07-31T11:13:31;2.47;;;1.23;;
64667;SDS011;51077;42.716;23.344;2023-07-31T11:15:56;2.33;;;1.20;;
64667;SDS011;51077;42.716;23.344;2023-07-31T11:18:22;3.63;;;1.33;;
64667;SDS011;51077;42.716;23.344;2023-07-31T11:20:48;2.53;;;1.30;;
64667;SDS011;51077;42.716;23.344;2023-07-31T11:23:15;4.67;;;1.57;;
64667;SDS011;51077;42.716;23.344;2023-07-31T11:25:42;5.33;;;1.30;;
64667;SDS011;51077;42.716;23.344;2023-07-31T11:28:09;2.40;;;1.40;;
64667;SDS011;51077;42.716;23.344;2023-07-31T11:30:35;3.13;;;1.50;;
64667;SDS011;51077;42.716;23.344;2023-07-31T11:33:02;3.73;;;1.53;;
64667;SDS011;51077;42.716;23.344;2023-07-31T11:35:29;3.03;;;1.40;;
64667;SDS011;51077;42.716;23.344;2023-07-31T11:37:56;3.70;;;1.10;;
64667;SDS011;51077;42.716;23.344;2023-07-31T11:40:21;2.30;;;1.30;;
64667;SDS011;51077;42.716;23.344;2023-07-31T11:42:46;2.33;;;1.10;;
64667;SDS011;51077;42.716;23.344;2023-07-31T11:45:12;3.53;;;1.10;;
64667;SDS011;51077;42.716;23.344;2023-07-31T11:47:37;2.77;;;1.57;;
64667;SDS011;51077;42.716;23.344;2023-07-31T11:50:04;2.23;;;1.17;;
64667;SDS011;51077;42.716;23.344;2023-07-31T11:52:32;2.93;;;1.40;;
64667;SDS011;51077;42.716;23.344;2023-07-31T11:55:01;2.23;;;1.27;;
64667;SDS011;51077;42.716;23.344;2023-07-31T11:57:27;3.13;;;1.50;;
64667;SDS011;51077;42.716;23.344;2023-07-31T11:59:53;2.43;;;1.30;;
64667;SDS011;51077;42.716;23.344;2023-07-31T12:02:20;4.60;;;1.50;;
64667;SDS011;51077;42.716;23.344;2023-07-31T12:04:46;2.03;;;1.20;;
64667;SDS011;51077;42.716;23.344;2023-07-31T12:07:12;3.13;;;1.40;;
64667;SDS011;51077;42.716;23.344;2023-07-31T12:09:38;2.20;;;1.27;;
64667;SDS011;51077;42.716;23.344;2023-07-31T12:12:03;3.07;;;1.60;;
64667;SDS011;51077;42.716;23.344;2023-07-31T12:14:34;3.30;;;1.43;;
64667;SDS011;51077;42.716;23.344;2023-07-31T12:17:04;3.27;;;1.80;;
64667;SDS011;51077;42.716;23.344;2023-07-31T12:19:32;3.35;;;1.80;;
64667;SDS011;51077;42.716;23.344;2023-07-31T12:21:58;4.63;;;2.17;;
64667;SDS011;51077;42.716;23.344;2023-07-31T12:24:26;2.73;;;2.00;;
64667;SDS011;51077;42.716;23.344;2023-07-31T12:26:52;3.83;;;2.17;;
64667;SDS011;51077;42.716;23.344;2023-07-31T12:29:18;3.90;;;2.40;;
64667;SDS011;51077;42.716;23.344;2023-07-31T12:31:43;2.83;;;2.23;;
64667;SDS011;51077;42.716;23.344;2023-07-31T12:34:15;3.10;;;2.27;;
64667;SDS011;51077;42.716;23.344;2023-07-31T12:36:42;3.97;;;2.47;;
64667;SDS011;51077;42.716;23.344;2023-07-31T12:39:08;3.17;;;2.60;;
64667;SDS011;51077;42.716;23.344;2023-07-31T12:41:34;3.10;;;2.17;;
64667;SDS011;51077;42.716;23.344;2023-07-31T12:43:59;4.73;;;2.83;;
64667;SDS011;51077;42.716;23.344;2023-07-31T12:46:24;3.60;;;2.70;;
64667;SDS011;51077;42.716;23.344;2023-07-31T12:48:50;3.43;;;3.03;;
64667;SDS011;51077;42.716;23.344;2023-07-31T12:51:15;3.70;;;2.93;;
64667;SDS011;51077;42.716;23.344;2023-07-31T12:53:40;3.87;;;2.90;;
64667;SDS011;51077;42.716;23.344;2023-07-31T12:56:06;3.83;;;2.80;;
64667;SDS011;51077;42.716;23.344;2023-07-31T12:58:31;4.23;;;3.20;;
64667;SDS011;51077;42.716;23.344;2023-07-31T13:00:57;3.97;;;3.13;;
64667;SDS011;51077;42.716;23.344;2023-07-31T13:03:22;4.40;;;3.13;;
64667;SDS011;51077;42.716;23.344;2023-07-31T13:05:48;3.90;;;2.80;;
64667;SDS011;51077;42.716;23.344;2023-07-31T13:08:13;5.10;;;3.43;;
64667;SDS011;51077;42.716;23.344;2023-07-31T13:10:40;4.57;;;3.57;;
64667;SDS011;51077;42.716;23.344;2023-07-31T13:13:06;5.03;;;3.70;;
64667;SDS011;51077;42.716;23.344;2023-07-31T13:15:31;5.70;;;3.20;;
64667;SDS011;51077;42.716;23.344;2023-07-31T13:17:57;4.63;;;3.33;;
64667;SDS011;51077;42.716;23.344;2023-07-31T13:20:22;3.93;;;3.00;;
64667;SDS011;51077;42.716;23.344;2023-07-31T13:22:48;4.90;;;3.40;;
64667;SDS011;51077;42.716;23.344;2023-07-31T13:25:13;4.63;;;3.43;;
64667;SDS011;51077;42.716;23.344;2023-07-31T13:27:39;3.87;;;3.40;;
64667;SDS011;51077;42.716;23.344;2023-07-31T13:30:04;3.77;;;2.80;;
64667;SDS011;51077;42.716;23.344;2023-07-31T13:32:30;6.10;;;2.90;;
64667;SDS011;51077;42.716;23.344;2023-07-31T13:34:56;3.43;;;3.00;;
64667;SDS011;51077;42.716;23.344;2023-07-31T13:37:21;5.10;;;3.03;;
64667;SDS011;51077;42.716;23.344;2023-07-31T13:39:47;3.57;;;2.97;;
64667;SDS011;51077;42.716;23.344;2023-07-31T13:42:12;4.37;;;3.00;;
64667;SDS011;51077;42.716;23.344;2023-07-31T13:44:38;4.10;;;2.93;;
64667;SDS011;51077;42.716;23.344;2023-07-31T13:47:04;4.47;;;3.40;;
64667;SDS011;51077;42.716;23.344;2023-07-31T13:49:30;4.70;;;3.10;;
64667;SDS011;51077;42.716;23.344;2023-07-31T13:51:56;4.10;;;3.03;;
64667;SDS011;51077;42.716;23.344;2023-07-31T13:54:22;4.63;;;3.47;;
64667;SDS011;51077;42.716;23.344;2023-07-31T13:56:48;3.60;;;2.80;;
64667;SDS011;51077;42.716;23.344;2023-07-31T13:59:13;3.20;;;2.80;;
64667;SDS011;51077;42.716;23.344;2023-07-31T14:01:41;5.30;;;3.03;;
64667;SDS011;51077;42.716;23.344;2023-07-31T14:04:06;3.73;;;2.80;;
64667;SDS011;51077;42.716;23.344;2023-07-31T14:06:32;3.93;;;2.87;;
64667;SDS011;51077;42.716;23.344;2023-07-31T14:08:57;5.37;;;3.03;;
64667;SDS011;51077;42.716;23.344;2023-07-31T14:11:22;5.03;;;2.80;;
64667;SDS011;51077;42.716;23.344;2023-07-31T14:13:49;3.30;;;2.80;;
64667;SDS011;51077;42.716;23.344;2023-07-31T14:16:15;3.87;;;2.63;;
64667;SDS011;51077;42.716;23.344;2023-07-31T14:18:41;4.57;;;2.70;;
64667;SDS011;51077;42.716;23.344;2023-07-31T14:21:06;5.50;;;3.10;;
64667;SDS011;51077;42.716;23.344;2023-07-31T14:23:32;5.93;;;2.97;;
64667;SDS011;51077;42.716;23.344;2023-07-31T14:25:57;3.90;;;2.90;;
64667;SDS011;51077;42.716;23.344;2023-07-31T14:28:23;3.63;;;2.93;;
64667;SDS011;51077;42.716;23.344;2023-07-31T14:30:48;3.03;;;2.33;;
64667;SDS011;51077;42.716;23.344;2023-07-31T14:33:13;3.43;;;2.63;;
64667;SDS011;51077;42.716;23.344;2023-07-31T14:35:39;3.70;;;2.50;;
64667;SDS011;51077;42.716;23.344;2023-07-31T14:38:04;3.37;;;2.70;;
64667;SDS011;51077;42.716;23.344;2023-07-31T14:40:30;3.60;;;2.67;;
64667;SDS011;51077;42.716;23.344;2023-07-31T14:42:55;3.40;;;2.53;;
64667;SDS011;51077;42.716;23.344;2023-07-31T14:45:20;4.07;;;2.80;;